Time;durP1;ratioP1;P1;durP2;ratioP2;P2;SDS_P1;SDS_P2;PMS_P1;PMS_P2;Temp;Humidity;BMP_temperature;BMP_pressure;BME280_temperature;BME280_humidity;BME280_pressure;Samples;Min_cycle;Max_cycle;Signal;HPM_P1;HPM_P2
2022/05/29 00:01:43;;;;;;;19.50;12.77;;;;;;;9.62;99.13;101147.44;5033859;28;20432;-44
2022/05/29 00:04:10;;;;;;;17.37;14.20;;;;;;;9.64;99.07;101149.94;5033849;28;20474;-50
2022/05/29 00:06:41;;;;;;;21.30;14.43;;;;;;;9.66;99.12;101142.59;5033288;28;20874;-44
2022/05/29 00:09:14;;;;;;;26.13;14.23;;;;;;;9.66;99.18;101140.75;5034067;28;20424;-46
2022/05/29 00:11:42;;;;;;;23.77;14.67;;;;;;;9.63;99.02;101145.59;5033618;28;20470;-47
2022/05/29 00:14:09;;;;;;;24.50;15.50;;;;;;;9.64;99.02;101137.44;5033722;28;20482;-48
2022/05/29 00:16:37;;;;;;;30.43;15.10;;;;;;;9.62;98.57;101135.94;5033187;28;20471;-47
2022/05/29 00:19:05;;;;;;;28.40;15.03;;;;;;;9.58;98.93;101127.53;5033545;28;20436;-48
2022/05/29 00:21:35;;;;;;;29.87;15.27;;;;;;;9.54;98.84;101130.72;5033460;28;20435;-46
2022/05/29 00:24:04;;;;;;;25.97;13.97;;;;;;;9.50;98.73;101129.44;5033635;28;20526;-46
2022/05/29 00:26:33;;;;;;;20.80;13.20;;;;;;;9.45;98.86;101125.47;5032102;28;21029;-46
2022/05/29 00:29:00;;;;;;;26.50;14.83;;;;;;;9.41;98.81;101115.34;5033663;28;20438;-47
2022/05/29 00:31:28;;;;;;;22.47;13.87;;;;;;;9.39;98.71;101125.34;5033208;28;20442;-47
2022/05/29 00:33:56;;;;;;;16.03;13.63;;;;;;;9.37;98.83;101116.72;5033182;28;20559;-46
2022/05/29 00:36:23;;;;;;;14.73;13.30;;;;;;;9.35;98.82;101118.72;5032834;28;20475;-46
2022/05/29 00:38:51;;;;;;;19.73;14.40;;;;;;;9.33;98.87;101116.25;5033466;28;20440;-45
2022/05/29 00:41:24;;;;;;;21.60;12.97;;;;;;;9.33;98.92;101115.41;5032925;28;20450;-45
2022/05/29 00:44:16;;;;;;;21.30;13.30;;;;;;;9.30;99.04;101119.28;5033375;28;20439;-45
2022/05/29 00:46:45;;;;;;;23.20;14.10;;;;;;;9.28;99.18;101115.13;5032594;28;20845;-47
2022/05/29 00:49:18;;;;;;;15.00;13.47;;;;;;;9.27;99.07;101119.63;5033136;28;20439;-46
2022/05/29 00:51:49;;;;;;;22.23;13.30;;;;;;;9.27;99.19;101116.13;5032867;28;20436;-48
2022/05/29 00:54:17;;;;;;;14.80;13.30;;;;;;;9.24;99.28;101120.00;5032991;28;20499;-48
2022/05/29 00:56:46;;;;;;;20.47;13.50;;;;;;;9.26;99.42;101117.97;5032350;28;20468;-46
2022/05/29 00:59:20;;;;;;;15.87;13.20;;;;;;;9.26;99.29;101111.81;5033198;28;20433;-46
2022/05/29 01:01:48;;;;;;;22.20;13.50;;;;;;;9.25;99.23;101108.34;5032612;28;20976;-45
2022/05/29 01:04:16;;;;;;;20.03;13.47;;;;;;;9.25;99.25;101116.34;5032680;28;21118;-45
2022/05/29 01:06:44;;;;;;;22.33;14.37;;;;;;;9.25;99.36;101111.00;5032222;28;20467;-47
2022/05/29 01:09:12;;;;;;;14.03;12.60;;;;;;;9.25;99.28;101112.84;5032676;28;20432;-47
2022/05/29 01:12:01;;;;;;;19.00;13.30;;;;;;;9.26;99.38;101109.16;5032594;28;20447;-45
2022/05/29 01:14:41;;;;;;;19.53;13.40;;;;;;;9.26;99.45;101109.97;5032552;28;20482;-47
2022/05/29 01:17:21;;;;;;;21.60;15.33;;;;;;;9.26;99.43;101102.00;5032078;28;20467;-47
2022/05/29 01:20:16;;;;;;;25.77;14.57;;;;;;;9.28;99.53;101105.31;5032459;28;20432;-45
2022/05/29 01:22:59;;;;;;;25.00;13.47;;;;;;;9.29;99.54;101104.31;4992778;28;20436;-47
2022/05/29 01:25:55;;;;;;;22.43;13.67;;;;;;;9.33;99.62;101096.78;5032473;28;20428;-46
2022/05/29 01:28:39;;;;;;;18.27;13.63;;;;;;;9.33;99.65;101094.13;5030790;28;20468;-47
2022/05/29 01:31:12;;;;;;;17.83;14.10;;;;;;;9.33;99.71;101099.44;5029619;28;20444;-48
2022/05/29 01:33:47;;;;;;;19.33;13.43;;;;;;;9.32;99.65;101085.31;5029775;28;20428;-44
2022/05/29 01:36:23;;;;;;;15.93;13.47;;;;;;;9.33;99.55;101089.63;5031476;28;20474;-46
2022/05/29 01:38:57;;;;;;;17.93;13.27;;;;;;;9.32;99.68;101080.00;5032261;28;20428;-46
2022/05/29 01:41:33;;;;;;;16.57;13.70;;;;;;;9.30;99.62;101082.00;5032151;28;20436;-46
2022/05/29 01:44:10;;;;;;;18.10;14.17;;;;;;;9.28;99.47;101078.72;5032102;28;20432;-45
2022/05/29 01:46:38;;;;;;;20.40;13.83;;;;;;;9.28;99.49;101084.03;5031540;28;20464;-48
2022/05/29 01:49:15;;;;;;;17.57;15.33;;;;;;;9.26;99.54;101079.88;5032139;28;20447;-44
2022/05/29 01:51:51;;;;;;;21.40;14.53;;;;;;;9.25;99.57;101072.91;5031967;28;20874;-46
2022/05/29 01:54:24;;;;;;;22.30;13.83;;;;;;;9.23;99.78;101075.75;5031961;28;20415;-47
2022/05/29 01:56:56;;;;;;;23.30;14.10;;;;;;;9.21;99.57;101076.94;5031465;28;20464;-44
2022/05/29 01:59:33;;;;;;;14.57;12.60;;;;;;;9.21;99.60;101071.63;5031789;28;20896;-47
2022/05/29 02:02:06;;;;;;;18.97;14.23;;;;;;;9.17;99.59;101076.47;5031790;28;20436;-44
2022/05/29 02:04:38;;;;;;;19.70;13.60;;;;;;;9.17;99.61;101078.31;5031946;28;20432;-44
2022/05/29 02:10:01;;;;;;;23.27;14.00;;;;;;;9.15;99.68;101064.34;5031729;28;20428;-45
2022/05/29 02:12:31;;;;;;;16.53;13.03;;;;;;;9.14;99.63;101074.16;5031675;28;20435;-44
2022/05/29 02:15:06;;;;;;;25.67;14.23;;;;;;;9.13;99.62;101075.19;5031787;28;20554;-46
2022/05/29 02:17:39;;;;;;;14.70;13.40;;;;;;;9.14;99.69;101076.81;5031134;28;20471;-48
2022/05/29 02:20:12;;;;;;;22.80;15.00;;;;;;;9.14;99.69;101073.34;5031623;28;20432;-46
2022/05/29 02:22:42;;;;;;;22.13;14.33;;;;;;;9.16;99.74;101066.84;5031835;28;20440;-45
2022/05/29 02:25:13;;;;;;;16.23;14.47;;;;;;;9.19;99.67;101071.81;5031641;28;20455;-45
2022/05/29 02:27:45;;;;;;;22.03;15.00;;;;;;;9.23;99.73;101069.59;5031061;28;20474;-45
2022/05/29 02:30:14;;;;;;;27.13;14.63;;;;;;;9.26;99.92;101066.56;5031342;28;20450;-44
2022/05/29 02:32:53;;;;;;;21.50;15.13;;;;;;;9.27;99.73;101061.09;5031542;28;20450;-44
2022/05/29 02:35:26;;;;;;;25.03;15.30;;;;;;;9.29;99.78;101061.72;5031730;28;20518;-49
2022/05/29 02:37:57;;;;;;;27.70;14.47;;;;;;;9.29;99.96;101063.56;5030918;28;20468;-44
2022/05/29 02:40:30;;;;;;;16.20;14.47;;;;;;;9.29;99.75;101063.56;5031389;28;20432;-44
2022/05/29 02:43:06;;;;;;;21.33;14.53;;;;;;;9.27;99.81;101063.75;5031385;28;20436;-49
2022/05/29 02:45:44;;;;;;;17.93;13.87;;;;;;;9.27;99.96;101060.25;5031555;28;20482;-44
2022/05/29 02:48:20;;;;;;;19.33;14.30;;;;;;;9.26;99.79;101051.44;5031253;28;20462;-48
2022/05/29 02:50:55;;;;;;;20.57;13.97;;;;;;;9.26;99.79;101056.75;5034618;28;20929;-46
2022/05/29 02:53:24;;;;;;;15.90;13.57;;;;;;;9.25;99.92;101054.28;5035129;28;20431;-47
2022/05/29 02:55:53;;;;;;;17.97;14.00;;;;;;;9.25;99.83;101049.81;5034676;28;20474;-45
2022/05/29 02:58:25;;;;;;;17.97;13.93;;;;;;;9.25;99.90;101049.81;5035284;28;20435;-45
2022/05/29 03:01:18;;;;;;;22.67;14.33;;;;;;;9.26;99.73;101059.41;5034939;28;20948;-45
2022/05/29 03:04:04;;;;;;;28.67;15.20;;;;;;;9.26;99.86;101056.75;5035179;28;20428;-47
2022/05/29 03:06:43;;;;;;;23.00;14.83;;;;;;;9.29;99.70;101050.25;5034628;28;20844;-45
2022/05/29 03:09:23;;;;;;;22.27;15.13;;;;;;;9.33;100.00;101051.53;5035075;28;20440;-45
2022/05/29 03:11:51;;;;;;;13.07;11.90;;;;;;;9.36;99.97;101044.03;5034756;28;20442;-44
2022/05/29 03:14:34;;;;;;;16.43;13.37;;;;;;;9.40;99.87;101047.16;5034778;28;20432;-44
2022/05/29 03:17:15;;;;;;;18.37;13.33;;;;;;;9.44;99.92;101038.63;5034281;28;20480;-46
2022/05/29 03:19:52;;;;;;;24.97;14.47;;;;;;;9.47;99.82;101040.09;5034931;28;20427;-45
2022/05/29 03:22:32;;;;;;;17.43;14.33;;;;;;;9.53;99.82;101044.69;5034609;28;20832;-45
2022/05/29 03:25:07;;;;;;;17.37;13.90;;;;;;;9.58;99.95;101044.97;5034895;28;20433;-44
2022/05/29 03:27:41;;;;;;;20.17;14.27;;;;;;;9.65;99.84;101037.91;5034056;28;20845;-44
2022/05/29 03:30:13;;;;;;;19.30;14.53;;;;;;;9.71;99.93;101039.00;5034597;28;20451;-44
2022/05/29 03:32:43;;;;;;;15.57;13.97;;;;;;;9.76;99.81;101042.78;5034613;28;20824;-48
2022/05/29 03:35:27;;;;;;;18.70;15.07;;;;;;;9.83;99.94;101035.69;5034257;28;20828;-44
2022/05/29 03:37:56;;;;;;;21.60;14.57;;;;;;;9.91;99.82;101040.13;5032744;28;20460;-45
2022/05/29 03:40:25;;;;;;;14.50;13.10;;;;;;;10.00;99.83;101044.34;5034375;28;20428;-48
2022/05/29 03:42:52;;;;;;;18.53;14.60;;;;;;;10.10;99.73;101036.03;5034598;28;20428;-45
2022/05/29 03:45:21;;;;;;;15.77;14.10;;;;;;;10.21;99.88;101027.59;5034194;28;20443;-45
2022/05/29 03:47:51;;;;;;;23.93;15.10;;;;;;;10.34;99.89;101033.06;5033993;28;20491;-47
2022/05/29 03:50:21;;;;;;;16.43;14.40;;;;;;;10.41;99.62;101028.66;5034079;28;20428;-46
2022/05/29 03:52:49;;;;;;;24.30;14.80;;;;;;;10.52;99.88;101034.31;5034386;28;20523;-48
2022/05/29 03:55:20;;;;;;;16.10;13.80;;;;;;;10.65;99.71;101030.97;5034124;28;20458;-44
2022/05/29 03:57:48;;;;;;;20.20;13.63;;;;;;;10.81;99.42;101035.22;5033453;28;20460;-46
2022/05/29 04:00:17;;;;;;;24.03;15.33;;;;;;;10.96;99.76;101030.66;5033135;28;20440;-46
2022/05/29 04:02:45;;;;;;;16.10;14.17;;;;;;;11.14;99.62;101027.50;5033400;28;20440;-45
2022/05/29 04:05:19;;;;;;;26.47;15.07;;;;;;;11.28;99.50;101032.75;5033993;28;20437;-45
2022/05/29 04:13:19;;;;;;;16.10;13.30;;;;;;;11.88;99.37;101036.66;5033890;28;20424;-45
2022/05/29 04:15:47;;;;;;;25.57;14.30;;;;;;;12.05;99.59;101035.31;5033261;28;20438;-46
2022/05/29 04:18:16;;;;;;;18.60;12.93;;;;;;;12.29;99.07;101031.28;5032618;28;21050;-46
2022/05/29 04:20:46;;;;;;;18.00;13.80;;;;;;;12.50;99.02;101029.31;5032316;28;20443;-48
2022/05/29 04:23:14;;;;;;;16.03;12.83;;;;;;;12.78;98.98;101026.47;5032959;28;20439;-45
2022/05/29 04:25:43;;;;;;;16.10;12.70;;;;;;;13.07;98.67;101035.97;5032481;28;20432;-44
2022/05/29 04:28:11;;;;;;;18.13;12.60;;;;;;;13.18;96.07;101032.69;5032209;28;20448;-46
2022/05/29 04:30:39;;;;;;;27.47;14.43;;;;;;;13.42;94.27;101024.03;5032171;28;20428;-46
2022/05/29 04:33:07;;;;;;;18.87;13.10;;;;;;;13.74;93.90;101028.50;5032370;28;20428;-45
2022/05/29 04:35:39;;;;;;;17.17;12.10;;;;;;;14.23;94.51;101027.91;5032224;28;20436;-45
2022/05/29 04:38:08;;;;;;;16.70;10.90;;;;;;;15.03;95.65;101022.91;5031742;28;20871;-47
2022/05/29 04:40:37;;;;;;;22.13;11.53;;;;;;;15.63;90.29;101016.78;5032206;28;20527;-45
2022/05/29 04:43:05;;;;;;;22.20;10.40;;;;;;;16.17;78.24;101025.91;5032294;28;20440;-45
2022/05/29 04:45:33;;;;;;;24.50;11.20;;;;;;;16.95;74.77;101024.00;5032052;28;20527;-45
2022/05/29 04:48:01;;;;;;;16.97;11.10;;;;;;;16.86;69.79;101015.44;5031507;28;20472;-45
2022/05/29 04:50:29;;;;;;;16.57;10.60;;;;;;;17.05;69.55;101014.28;5031815;28;20925;-46
2022/05/29 04:52:56;;;;;;;17.20;11.50;;;;;;;16.87;68.52;101019.78;5032274;28;20469;-49
2022/05/29 04:55:25;;;;;;;22.20;11.03;;;;;;;16.74;70.02;101014.59;5032006;28;20929;-45
2022/05/29 04:57:53;;;;;;;26.33;12.20;;;;;;;16.36;68.87;101016.75;5031335;28;20474;-47
2022/05/29 05:00:21;;;;;;;18.00;12.20;;;;;;;16.16;69.48;101014.31;5031829;28;20782;-45
2022/05/29 05:02:49;;;;;;;15.43;11.83;;;;;;;16.13;71.94;101012.06;5031860;28;20977;-47
2022/05/29 05:05:17;;;;;;;17.03;12.90;;;;;;;15.89;69.02;101019.19;5032079;28;20458;-45
2022/05/29 05:07:45;;;;;;;28.03;11.93;;;;;;;15.84;70.30;101015.53;5031322;28;20464;-47
2022/05/29 05:10:15;;;;;;;20.23;11.03;;;;;;;15.96;71.58;101013.75;5031715;28;20435;-44
2022/05/29 05:12:45;;;;;;;24.83;11.73;;;;;;;16.55;73.55;101015.69;5031307;28;20432;-44
2022/05/29 05:15:15;;;;;;;22.77;10.87;;;;;;;16.73;69.40;101009.41;5031632;28;20435;-45
2022/05/29 05:17:43;;;;;;;25.83;12.43;;;;;;;16.75;67.35;101007.31;4993058;28;1103383;-46
2022/05/29 05:20:12;;;;;;;21.87;11.23;;;;;;;16.61;66.26;101011.28;5032465;28;20197;-46
2022/05/29 05:22:39;;;;;;;16.20;9.83;;;;;;;17.66;70.41;101007.63;5032584;28;20443;-44
2022/05/29 05:25:09;;;;;;;21.03;8.90;;;;;;;19.03;69.38;101001.13;5032380;28;20424;-47
2022/05/29 05:27:37;;;;;;;23.53;9.30;;;;;;;18.92;62.56;101012.84;5031642;28;20464;-45
2022/05/29 05:30:08;;;;;;;15.87;7.63;;;;;;;19.62;62.38;101020.44;5032419;28;20430;-48
2022/05/29 05:32:35;;;;;;;16.00;8.53;;;;;;;19.78;61.07;101004.16;5032308;28;20427;-49
2022/05/29 05:35:05;;;;;;;20.47;9.40;;;;;;;19.50;57.80;101007.03;5032281;28;20431;-45
2022/05/29 05:37:35;;;;;;;18.20;10.40;;;;;;;19.50;59.27;101003.50;5031643;28;20996;-45
2022/05/29 05:40:04;;;;;;;18.43;8.87;;;;;;;19.51;57.69;101010.53;5032059;28;20428;-48
2022/05/29 05:42:32;;;;;;;26.33;9.40;;;;;;;19.24;57.74;101004.97;5032026;28;20447;-48
2022/05/29 05:45:00;;;;;;;25.60;8.50;;;;;;;19.48;58.95;101002.91;5032256;28;20434;-45
2022/05/29 05:47:29;;;;;;;22.43;10.37;;;;;;;19.01;56.94;100999.72;5031974;28;20557;-47
2022/05/29 05:49:56;;;;;;;22.13;10.10;;;;;;;18.99;58.98;101001.88;5032009;28;20432;-50
2022/05/29 05:52:24;;;;;;;18.87;7.00;;;;;;;19.86;58.75;101001.00;5031802;28;20436;-48
2022/05/29 05:54:51;;;;;;;16.77;8.07;;;;;;;19.88;56.63;101001.59;5031833;28;20431;-46
2022/05/29 05:57:20;;;;;;;17.73;7.87;;;;;;;19.80;57.21;101012.03;5031097;28;20471;-47
2022/05/29 05:59:47;;;;;;;16.10;7.40;;;;;;;20.84;57.58;101008.09;5032080;28;20439;-45
2022/05/29 06:02:16;;;;;;;16.43;7.70;;;;;;;22.08;54.21;101002.13;5031567;28;20431;-46
2022/05/29 06:04:45;;;;;;;17.93;7.13;;;;;;;22.96;51.54;101000.97;5031711;28;20930;-48
2022/05/29 06:07:12;;;;;;;17.90;7.60;;;;;;;23.90;50.65;100999.44;5031202;28;20460;-50
2022/05/29 06:09:40;;;;;;;20.47;8.83;;;;;;;24.59;47.18;101007.56;5031932;28;20432;-48
2022/05/29 06:12:09;;;;;;;15.17;6.63;;;;;;;25.12;47.54;101011.28;5031631;28;20431;-49
2022/05/29 06:14:37;;;;;;;15.93;7.60;;;;;;;25.16;39.81;101007.69;5031747;28;20797;-47
2022/05/29 06:17:05;;;;;;;13.50;6.60;;;;;;;25.63;45.70;101011.63;5031033;28;20486;-47
2022/05/29 06:19:33;;;;;;;17.33;7.57;;;;;;;25.61;39.27;101014.66;5031630;28;20450;-49
2022/05/29 06:22:02;;;;;;;16.60;7.37;;;;;;;25.36;43.34;101011.34;5031289;28;20546;-49
2022/05/29 06:24:30;;;;;;;12.87;7.57;;;;;;;25.19;38.58;101018.03;5033121;28;20457;-46
2022/05/29 06:26:58;;;;;;;14.10;6.67;;;;;;;24.83;41.86;101013.97;5035332;28;20466;-50
2022/05/29 06:29:27;;;;;;;15.30;7.50;;;;;;;24.57;40.17;101007.03;5035838;28;20433;-47
2022/05/29 06:31:54;;;;;;;14.57;6.77;;;;;;;24.41;39.58;101009.03;5035571;28;20850;-47
2022/05/29 06:34:22;;;;;;;20.53;8.20;;;;;;;24.42;42.18;101005.22;5035610;28;20441;-47
2022/05/29 06:36:50;;;;;;;17.50;6.83;;;;;;;24.49;39.56;101011.16;5035055;28;20479;-45
2022/05/29 06:39:19;;;;;;;12.93;5.33;;;;;;;24.99;42.64;101007.31;5035471;28;20432;-47
2022/05/29 06:41:46;;;;;;;11.13;6.23;;;;;;;25.79;37.73;101007.63;5035135;28;20439;-43
2022/05/29 06:44:14;;;;;;;16.93;5.87;;;;;;;25.21;36.32;101015.81;5035383;28;20925;-44
2022/05/29 06:46:41;;;;;;;15.30;6.53;;;;;;;25.32;36.67;101008.38;5034682;28;21004;-48
2022/05/29 06:49:10;;;;;;;17.23;6.63;;;;;;;25.70;36.17;101010.19;5035622;28;20474;-48
2022/05/29 06:51:37;;;;;;;10.43;5.60;;;;;;;24.55;37.44;101010.03;5035213;28;20442;-47
2022/05/29 06:54:08;;;;;;;12.33;5.70;;;;;;;24.33;37.05;101009.63;5035386;28;20427;-50
2022/05/29 06:56:37;;;;;;;11.77;6.97;;;;;;;24.06;37.02;101010.03;5034624;28;20463;-49
2022/05/29 06:59:06;;;;;;;11.70;5.63;;;;;;;24.27;37.59;101009.94;5035141;28;20481;-49
2022/05/29 07:07:18;;;;;;;12.07;6.70;;;;;;;25.06;38.76;101013.22;4953972;28;20824;-48
2022/05/29 07:09:45;;;;;;;8.90;4.67;;;;;;;25.02;33.17;101009.47;5016290;28;20432;-51
2022/05/29 07:12:19;;;;;;;10.20;5.43;;;;;;;25.07;36.89;101008.59;5034604;28;20439;-46
2022/05/29 07:14:50;;;;;;;20.03;6.37;;;;;;;25.13;35.91;101012.91;5035086;28;20949;-48
2022/05/29 07:17:19;;;;;;;10.43;5.50;;;;;;;25.94;37.34;101010.16;5034148;28;20474;-51
2022/05/29 07:19:46;;;;;;;10.73;5.20;;;;;;;25.22;34.49;101001.09;5034979;28;20431;-47
2022/05/29 07:22:14;;;;;;;11.30;5.40;;;;;;;25.38;34.43;101004.50;5034442;28;20440;-48
2022/05/29 07:24:43;;;;;;;13.23;6.00;;;;;;;24.99;37.37;101018.22;5033577;28;20431;-50
2022/05/29 07:27:11;;;;;;;16.50;6.57;;;;;;;24.50;38.47;101009.25;5033984;28;20474;-47
2022/05/29 07:29:40;;;;;;;16.10;7.40;;;;;;;25.12;37.14;101012.09;5034663;28;20435;-51
2022/05/29 07:32:08;;;;;;;14.93;5.93;;;;;;;23.65;38.80;101006.59;5034170;28;20956;-46
2022/05/29 07:34:36;;;;;;;15.90;6.53;;;;;;;21.78;41.29;101007.38;5034070;28;20437;-45
2022/05/29 07:37:06;;;;;;;13.33;5.77;;;;;;;20.81;42.40;101011.31;5033904;28;20468;-49
2022/05/29 07:39:37;;;;;;;13.53;6.80;;;;;;;20.95;42.85;101017.94;5033990;28;20901;-47
2022/05/29 07:44:52;;;;;;;17.87;6.60;;;;;;;21.64;43.21;101014.38;5034284;28;20434;-48
2022/05/29 07:47:20;;;;;;;19.37;6.53;;;;;;;21.84;42.67;101012.59;5029685;28;20464;-45
2022/05/29 07:49:48;;;;;;;25.50;7.30;;;;;;;22.23;41.93;101015.75;5034331;28;20433;-47
2022/05/29 07:52:16;;;;;;;15.20;7.03;;;;;;;21.82;42.61;101014.75;5034012;28;20435;-45
2022/05/29 07:54:44;;;;;;;11.90;6.20;;;;;;;21.01;44.29;101015.25;5033625;28;20428;-48
2022/05/29 07:57:11;;;;;;;16.27;7.23;;;;;;;20.13;46.94;101022.72;5033282;28;20471;-50
2022/05/29 07:59:39;;;;;;;14.97;7.50;;;;;;;19.61;47.84;101016.09;5033745;28;20823;-48
2022/05/29 08:02:09;;;;;;;19.70;7.13;;;;;;;19.08;49.17;101022.03;5033884;28;20436;-47
2022/05/29 08:04:39;;;;;;;21.33;8.17;;;;;;;18.79;50.81;101022.06;5033974;28;20459;-52
2022/05/29 08:07:07;;;;;;;17.40;8.23;;;;;;;18.51;52.15;101024.81;5033223;28;20474;-48
2022/05/29 08:09:34;;;;;;;13.43;6.97;;;;;;;18.61;52.22;101021.47;5033222;28;20431;-49
2022/05/29 08:12:02;;;;;;;21.90;7.73;;;;;;;18.59;52.88;101027.13;5032996;28;20436;-49
2022/05/29 08:14:31;;;;;;;17.20;8.53;;;;;;;18.61;53.09;101022.28;5033650;28;20439;-48
2022/05/29 08:16:59;;;;;;;24.73;7.50;;;;;;;18.60;52.81;101025.25;5032879;28;20563;-47
2022/05/29 08:19:29;;;;;;;14.23;7.47;;;;;;;18.81;52.17;101023.72;5033257;28;20482;-50
2022/05/29 08:21:57;;;;;;;19.83;7.73;;;;;;;18.80;52.41;101020.19;5033186;28;20523;-46
2022/05/29 08:33:05;;;;;;;17.30;6.77;;;;;;;19.95;47.45;101020.34;5033092;28;20886;-50
2022/05/29 08:35:35;;;;;;;19.30;7.40;;;;;;;20.65;48.43;101025.78;5033212;28;20442;-47
2022/05/29 08:38:04;;;;;;;19.70;6.80;;;;;;;20.86;47.48;101015.94;5032446;28;20984;-51
2022/05/29 08:40:33;;;;;;;15.57;6.33;;;;;;;20.64;44.58;101013.28;5033075;28;20438;-49
2022/05/29 08:43:00;;;;;;;16.03;7.10;;;;;;;20.32;45.60;101010.53;5033340;28;20435;-46
2022/05/29 08:45:34;;;;;;;14.60;5.90;;;;;;;20.32;45.23;101018.66;5032766;28;20435;-48
2022/05/29 08:48:02;;;;;;;13.07;6.67;;;;;;;20.30;44.89;101014.56;5031578;28;20543;-45
2022/05/29 08:50:40;;;;;;;13.43;6.07;;;;;;;20.52;44.47;101017.25;5030079;28;20459;-47
2022/05/29 08:53:16;;;;;;;18.67;6.20;;;;;;;20.70;44.36;101017.69;5031622;28;20444;-50
2022/05/29 08:55:50;;;;;;;14.07;6.07;;;;;;;20.83;45.52;101016.47;5032015;28;20427;-46
2022/05/29 08:58:30;;;;;;;11.40;6.00;;;;;;;20.34;47.89;101021.94;5032442;28;20416;-49
2022/05/29 09:01:11;;;;;;;12.50;6.27;;;;;;;20.11;48.20;101021.34;5031564;28;20821;-45
2022/05/29 09:03:58;;;;;;;17.07;6.73;;;;;;;19.56;48.06;101021.44;5031923;28;20540;-48
2022/05/29 09:06:33;;;;;;;19.87;6.60;;;;;;;19.25;48.61;101012.84;5031319;28;20471;-49
2022/05/29 09:09:05;;;;;;;13.17;7.10;;;;;;;18.96;50.70;101024.81;5031229;28;20511;-47
2022/05/29 09:11:38;;;;;;;13.63;6.63;;;;;;;18.67;50.24;101023.19;5031778;28;20440;-49
2022/05/29 09:14:13;;;;;;;11.73;6.10;;;;;;;19.03;50.77;101021.91;5031731;28;20432;-51
2022/05/29 09:16:45;;;;;;;16.50;6.20;;;;;;;19.48;49.55;101025.38;5031011;28;20473;-47
2022/05/29 09:19:28;;;;;;;11.87;6.40;;;;;;;20.34;51.26;101018.41;5031325;28;20476;-48
2022/05/29 09:22:01;;;;;;;11.57;6.77;;;;;;;20.48;46.69;101018.81;5031843;28;20441;-51
2022/05/29 09:24:40;;;;;;;11.97;5.93;;;;;;;20.56;46.79;101018.38;5031601;28;20857;-48
2022/05/29 09:27:10;;;;;;;15.10;6.37;;;;;;;21.03;45.81;101013.91;5028794;28;20479;-46
2022/05/29 09:29:38;;;;;;;13.57;5.53;;;;;;;21.10;44.49;101017.28;5022745;28;20444;-45
2022/05/29 09:32:11;;;;;;;10.27;4.67;;;;;;;20.92;44.41;101018.44;5028419;28;20549;-50
2022/05/29 09:34:39;;;;;;;9.30;4.60;;;;;;;20.81;40.13;101014.03;5030913;28;20926;-46
2022/05/29 09:37:18;;;;;;;10.60;5.27;;;;;;;20.48;41.01;101013.41;5030479;28;20477;-47
2022/05/29 09:39:50;;;;;;;14.87;5.03;;;;;;;20.87;42.83;101014.88;5030507;28;20459;-46
2022/05/29 09:42:22;;;;;;;10.47;5.67;;;;;;;20.80;41.43;101014.25;5031852;28;20802;-45
2022/05/29 09:45:11;;;;;;;9.87;4.90;;;;;;;20.62;43.39;101015.44;5031386;28;20429;-49
2022/05/29 09:50:39;;;;;;;10.13;4.77;;;;;;;19.99;45.56;101013.34;5031101;28;20778;-45
2022/05/29 09:53:15;;;;;;;15.23;6.13;;;;;;;20.12;45.52;101009.47;5031423;28;20440;-47
2022/05/29 09:55:51;;;;;;;10.20;4.97;;;;;;;20.13;46.26;101005.69;5025360;28;20432;-46
2022/05/29 09:58:25;;;;;;;9.70;5.00;;;;;;;20.48;46.02;101005.28;5031120;28;20801;-48
2022/05/29 10:00:55;;;;;;;10.63;5.00;;;;;;;20.60;44.91;101009.47;5030317;28;20490;-48
2022/05/29 10:03:42;;;;;;;8.40;4.70;;;;;;;20.76;43.92;101005.00;5030813;28;20443;-47
2022/05/29 10:06:29;;;;;;;9.90;4.97;;;;;;;20.69;43.05;101002.53;5030796;28;20458;-49
2022/05/29 10:09:15;;;;;;;11.27;5.17;;;;;;;20.81;42.08;101003.19;5030889;28;20430;-48
2022/05/29 10:11:45;;;;;;;8.10;4.53;;;;;;;20.87;42.56;100999.44;5011520;28;20455;-48
2022/05/29 10:14:37;;;;;;;9.93;4.63;;;;;;;20.40;42.43;100996.53;5020588;28;20432;-47
2022/05/29 10:17:13;;;;;;;10.83;5.40;;;;;;;20.64;43.36;101001.66;5030155;28;20463;-48
2022/05/29 10:19:44;;;;;;;10.60;4.90;;;;;;;20.42;46.25;100999.00;5030586;28;20471;-45
2022/05/29 10:22:16;;;;;;;12.43;6.30;;;;;;;20.86;47.31;101002.41;5030926;28;20462;-49
2022/05/29 10:24:45;;;;;;;6.47;4.40;;;;;;;21.62;45.74;100987.53;5030997;28;20775;-46
2022/05/29 10:27:26;;;;;;;9.20;5.00;;;;;;;21.86;43.70;100994.13;5030078;28;20468;-46
2022/05/29 10:29:56;;;;;;;11.27;5.00;;;;;;;21.96;42.61;100996.09;5030632;28;20423;-49
2022/05/29 10:32:28;;;;;;;15.43;5.60;;;;;;;21.95;42.61;100997.22;5031022;28;20431;-46
2022/05/29 10:35:23;;;;;;;9.40;5.53;;;;;;;21.33;42.54;100992.47;5030998;28;20428;-48
2022/05/29 10:37:53;;;;;;;12.60;5.83;;;;;;;20.97;44.55;101004.09;5027258;28;20822;-45
2022/05/29 10:40:25;;;;;;;10.80;4.63;;;;;;;20.53;43.57;100997.19;5030436;28;20475;-47
2022/05/29 10:42:54;;;;;;;10.77;4.63;;;;;;;20.86;44.41;101008.63;5031240;28;20440;-47
2022/05/29 10:45:25;;;;;;;11.60;5.57;;;;;;;20.66;45.13;100994.91;5030775;28;20424;-46
2022/05/29 10:48:23;;;;;;;11.10;4.73;;;;;;;20.90;44.34;100998.94;5030020;28;20467;-46
2022/05/29 10:51:04;;;;;;;12.93;5.40;;;;;;;21.04;44.52;100998.47;5025708;28;20423;-48
2022/05/29 10:53:46;;;;;;;7.83;4.53;;;;;;;21.29;42.63;100990.56;5014528;28;20641;-45
2022/05/29 10:56:26;;;;;;;10.73;5.20;;;;;;;20.87;43.15;101001.31;5030259;28;20467;-51
2022/05/29 10:59:05;;;;;;;11.73;4.90;;;;;;;20.80;43.93;100995.28;5030335;28;20427;-46
2022/05/29 11:04:56;;;;;;;11.47;4.97;;;;;;;20.29;44.52;100988.56;5030437;28;20424;-44
2022/05/29 11:07:36;;;;;;;11.37;5.00;;;;;;;20.04;43.94;100989.03;5022618;28;20466;-46
2022/05/29 11:10:17;;;;;;;12.80;4.40;;;;;;;20.05;44.33;100987.97;5031061;28;20430;-50
2022/05/29 11:13:05;;;;;;;8.47;4.50;;;;;;;20.50;44.09;100986.88;5034392;28;20436;-47
2022/05/29 11:15:43;;;;;;;9.33;4.80;;;;;;;20.77;42.22;100984.97;5034200;28;20431;-49
2022/05/29 11:18:30;;;;;;;12.20;5.03;;;;;;;20.49;42.31;100983.34;5033683;28;20462;-49
2022/05/29 11:21:05;;;;;;;9.60;5.60;;;;;;;20.28;42.75;100979.59;5033466;28;20471;-47
2022/05/29 11:23:49;;;;;;;10.50;4.80;;;;;;;20.23;43.04;100976.81;5034133;28;20442;-46
2022/05/29 11:26:29;;;;;;;5.17;3.70;;;;;;;20.52;41.94;100971.19;5033787;28;20550;-47
2022/05/29 11:29:10;;;;;;;7.60;4.07;;;;;;;20.48;41.85;100970.88;5033850;28;20526;-49
2022/05/29 11:32:09;;;;;;;8.03;4.53;;;;;;;20.48;43.09;100975.47;5033729;28;20439;-47
2022/05/29 11:34:45;;;;;;;14.50;5.23;;;;;;;20.09;44.39;100967.47;5026798;28;20434;-50
2022/05/29 11:37:29;;;;;;;11.93;4.33;;;;;;;19.85;46.12;100966.91;5033064;28;20469;-48
2022/05/29 11:40:01;;;;;;;10.07;5.00;;;;;;;20.27;45.57;100963.63;5033495;28;20497;-50
2022/05/29 11:42:47;;;;;;;8.27;5.00;;;;;;;20.27;45.49;100969.03;5033692;28;20983;-49
2022/05/29 11:45:22;;;;;;;8.87;4.80;;;;;;;20.17;45.68;100963.47;5033715;28;20953;-46
2022/05/29 11:53:33;;;;;;;8.90;5.30;;;;;;;21.33;43.00;100951.78;5034063;28;20470;-45
2022/05/29 11:56:07;;;;;;;9.93;4.50;;;;;;;21.51;42.81;100948.63;5033052;28;20431;-47
2022/05/29 11:58:40;;;;;;;11.30;5.77;;;;;;;21.54;39.64;100939.16;5032154;28;20839;-43
2022/05/29 12:01:14;;;;;;;9.30;4.80;;;;;;;21.80;39.69;100945.53;5031830;28;20471;-44
2022/05/29 12:03:48;;;;;;;10.17;4.33;;;;;;;21.63;39.96;100940.28;5029453;28;20451;-45
2022/05/29 12:06:24;;;;;;;11.03;4.10;;;;;;;21.43;40.31;100935.59;5030616;28;20558;-43
2022/05/29 12:08:58;;;;;;;8.10;4.30;;;;;;;21.18;42.47;100937.31;5021050;28;20433;-43
2022/05/29 12:11:37;;;;;;;6.70;3.70;;;;;;;21.10;41.42;100941.34;5031661;28;20455;-45
2022/05/29 12:14:09;;;;;;;8.83;4.20;;;;;;;20.85;42.62;100938.41;5031977;28;20442;-45
2022/05/29 12:16:41;;;;;;;8.60;4.27;;;;;;;20.63;41.77;100941.22;5023350;28;20463;-45
2022/05/29 12:19:14;;;;;;;6.37;3.80;;;;;;;20.52;42.38;100933.28;5029682;28;20888;-46